Terminal Aerodrome Forecast
Issued by NWS

Home | Current Version | Previous Version | Text Only | Print | Product List | Glossary On
Versions: 1 2 3 4 5 6 7 8 9 10 11 12 13 14 15 16 17 18
000
FTUS43 KJKL 201132
TAFSME
TAF
KSME 201132Z 2012/2112 19006KT P6SM FEW200 WS020/21040KT
     FM201500 19013G24KT P6SM FEW200
     FM210000 19006KT P6SM SCT090
     FM210400 VRB05KT P6SM SCT150 WS020/20045KT=

USA.gov is the U.S. government's official web portal to all federal, state and local government web resources and services.